BOX457 UZTT-VHHH
Flight info
| Callsign | BOX457 |
|---|---|
| Flight time | N/A |
| Altitude | 35000 |
| Route | TISIB2A TISIB L141 KAMUD/K0891S1070 W186 SADAN Y1 OMBON W245 OVRAL B330 DAGDI/K0902S1130 W234 NIXID B330 AVPAM V25 UJ DCT SIERA |
| Aircraft | B77L/H-SDE1E2E3FGHIJ2J3J4J5M1RWXY/LB1D1 |
Departure
| Time | 2026-05-08 08:12 |
|---|---|
| Airport | Tashkent International Airport (UZTT) |
Arrival
| Time | N/A |
|---|---|
| Airport | Hong Kong International Airport (VHHH) |
| Time | Latitude | Longitude | Altitude | Speed | Heading |
|---|---|---|---|---|---|
| 2026-05-08 06:10 | 41.26282 | 69.27824 | 1408 ft | 0 kts | 82° |
| 2026-05-08 07:45 | 41.26281 | 69.27815 | 1381 ft | 4 kts | 84° |
| 2026-05-08 07:45 | 41.26280 | 69.27779 | 1408 ft | 4 kts | 97° |
| 2026-05-08 07:45 | 41.26286 | 69.27745 | 1417 ft | 4 kts | 116° |
| 2026-05-08 07:46 | 41.26301 | 69.27717 | 1417 ft | 4 kts | 143° |
| 2026-05-08 07:46 | 41.26323 | 69.27703 | 1412 ft | 2 kts | 172° |
| 2026-05-08 07:46 | 41.26326 | 69.27702 | 1417 ft | 1 kts | 173° |
| 2026-05-08 07:54 | 41.26325 | 69.27702 | 1408 ft | 0 kts | 173° |
| 2026-05-08 07:54 | 41.26314 | 69.27704 | 1415 ft | 2 kts | 173° |
| 2026-05-08 07:55 | 41.26293 | 69.27708 | 1416 ft | 4 kts | 173° |
| 2026-05-08 07:55 | 41.26268 | 69.27712 | 1412 ft | 4 kts | 171° |
| 2026-05-08 07:55 | 41.26257 | 69.27715 | 1411 ft | 0 kts | 171° |
| 2026-05-08 07:56 | 41.26219 | 69.27722 | 1412 ft | 8 kts | 171° |
| 2026-05-08 07:56 | 41.26164 | 69.27735 | 1417 ft | 8 kts | 166° |
| 2026-05-08 07:57 | 41.26117 | 69.27708 | 1416 ft | 8 kts | 244° |
| 2026-05-08 07:57 | 41.26107 | 69.27632 | 1413 ft | 8 kts | 261° |
| 2026-05-08 07:57 | 41.26097 | 69.27543 | 1408 ft | 15 kts | 261° |
| 2026-05-08 07:57 | 41.26083 | 69.27421 | 1414 ft | 13 kts | 262° |
| 2026-05-08 07:58 | 41.26073 | 69.27327 | 1410 ft | 7 kts | 262° |
| 2026-05-08 07:58 | 41.26067 | 69.27293 | 1414 ft | 2 kts | 249° |
| 2026-05-08 07:58 | 41.26042 | 69.27274 | 1413 ft | 5 kts | 186° |
| 2026-05-08 07:58 | 41.26014 | 69.27298 | 1417 ft | 5 kts | 137° |
| 2026-05-08 07:59 | 41.25989 | 69.27328 | 1417 ft | 1 kts | 138° |
| 2026-05-08 07:59 | 41.25982 | 69.27337 | 1417 ft | 3 kts | 138° |
| 2026-05-08 07:59 | 41.25977 | 69.27342 | 1416 ft | 0 kts | 139° |
| 2026-05-08 08:00 | 41.25963 | 69.27358 | 1413 ft | 7 kts | 139° |
| 2026-05-08 08:00 | 41.25927 | 69.27401 | 1415 ft | 5 kts | 139° |
| 2026-05-08 08:00 | 41.25926 | 69.27401 | 1415 ft | 0 kts | 139° |
| 2026-05-08 08:09 | 41.25877 | 69.27457 | 1415 ft | 15 kts | 139° |
| 2026-05-08 08:09 | 41.25801 | 69.27550 | 1415 ft | 15 kts | 126° |
| 2026-05-08 08:10 | 41.25792 | 69.27619 | 1415 ft | 0 kts | 81° |
| 2026-05-08 08:11 | 41.25793 | 69.27626 | 1416 ft | 12 kts | 81° |
| 2026-05-08 08:11 | 41.25854 | 69.28173 | 1411 ft | 106 kts | 82° |
| 2026-05-08 08:11 | 41.26002 | 69.29522 | 1410 ft | 187 kts | 81° |
| 2026-05-08 08:12 | 41.26190 | 69.31482 | 1588 ft | 232 kts | 82° |
| 2026-05-08 08:12 | 41.26350 | 69.33682 | 2389 ft | 235 kts | 84° |
| 2026-05-08 08:12 | 41.26504 | 69.35727 | 3803 ft | 214 kts | 84° |
| 2026-05-08 08:12 | 41.26717 | 69.37732 | 4422 ft | 224 kts | 86° |
| 2026-05-08 08:13 | 41.26612 | 69.39866 | 4667 ft | 240 kts | 109° |
| 2026-05-08 08:13 | 41.26097 | 69.41960 | 5298 ft | 239 kts | 110° |
| 2026-05-08 08:13 | 41.25593 | 69.44090 | 5901 ft | 244 kts | 109° |
| 2026-05-08 08:13 | 41.25125 | 69.46198 | 6757 ft | 229 kts | 107° |
| 2026-05-08 08:14 | 41.24713 | 69.48174 | 7517 ft | 221 kts | 106° |
| 2026-05-08 08:14 | 41.24309 | 69.50148 | 7736 ft | 241 kts | 105° |
| 2026-05-08 08:14 | 41.23856 | 69.52398 | 7914 ft | 264 kts | 105° |
| 2026-05-08 08:14 | 41.23375 | 69.54818 | 8381 ft | 275 kts | 105° |
| 2026-05-08 08:15 | 41.22885 | 69.57318 | 8894 ft | 286 kts | 105° |
| 2026-05-08 08:15 | 41.22380 | 69.59911 | 9506 ft | 293 kts | 105° |
| 2026-05-08 08:15 | 41.21866 | 69.62556 | 10187 ft | 298 kts | 105° |
| 2026-05-08 08:15 | 41.21337 | 69.65285 | 10588 ft | 315 kts | 105° |
| 2026-05-08 08:16 | 41.20769 | 69.68214 | 10788 ft | 340 kts | 105° |
| 2026-05-08 08:16 | 41.20157 | 69.71367 | 10951 ft | 365 kts | 105° |
| 2026-05-08 08:16 | 41.19506 | 69.74726 | 11268 ft | 384 kts | 105° |
| 2026-05-08 08:16 | 41.18830 | 69.78202 | 11894 ft | 392 kts | 105° |
| 2026-05-08 08:17 | 41.18144 | 69.81739 | 12652 ft | 400 kts | 105° |
| 2026-05-08 08:17 | 41.17443 | 69.85344 | 13425 ft | 405 kts | 105° |
| 2026-05-08 08:17 | 41.16737 | 69.88958 | 14326 ft | 406 kts | 104° |
| 2026-05-08 08:17 | 41.16028 | 69.92609 | 14988 ft | 411 kts | 105° |
| 2026-05-08 08:18 | 41.15304 | 69.96309 | 15714 ft | 417 kts | 105° |
| 2026-05-08 08:18 | 41.14568 | 70.00047 | 16458 ft | 420 kts | 105° |
| 2026-05-08 08:18 | 41.13824 | 70.03821 | 17143 ft | 426 kts | 105° |
| 2026-05-08 08:18 | 41.13071 | 70.07652 | 17806 ft | 433 kts | 105° |
| 2026-05-08 08:19 | 41.12309 | 70.11533 | 18527 ft | 436 kts | 105° |
| 2026-05-08 08:19 | 41.11538 | 70.15440 | 19149 ft | 440 kts | 105° |
| 2026-05-08 08:19 | 41.10771 | 70.19383 | 19820 ft | 442 kts | 103° |
| 2026-05-08 08:19 | 41.10264 | 70.23424 | 20456 ft | 447 kts | 96° |
| 2026-05-08 08:20 | 41.10099 | 70.27560 | 21021 ft | 452 kts | 90° |
| 2026-05-08 08:20 | 41.10263 | 70.31683 | 21585 ft | 456 kts | 84° |
| 2026-05-08 08:20 | 41.10601 | 70.35877 | 22180 ft | 460 kts | 84° |
| 2026-05-08 08:20 | 41.10950 | 70.40107 | 22723 ft | 464 kts | 84° |
| 2026-05-08 08:21 | 41.11297 | 70.44379 | 23298 ft | 468 kts | 85° |
| 2026-05-08 08:21 | 41.11631 | 70.48703 | 23804 ft | 474 kts | 85° |
| 2026-05-08 08:21 | 41.11957 | 70.53070 | 24297 ft | 477 kts | 85° |
| 2026-05-08 08:21 | 41.12281 | 70.57463 | 24830 ft | 479 kts | 85° |
| 2026-05-08 08:22 | 41.12603 | 70.61873 | 25331 ft | 482 kts | 85° |
| 2026-05-08 08:22 | 41.12928 | 70.66321 | 25779 ft | 486 kts | 85° |
| 2026-05-08 08:22 | 41.13250 | 70.70801 | 26202 ft | 490 kts | 85° |
| 2026-05-08 08:22 | 41.13572 | 70.75306 | 26656 ft | 493 kts | 85° |
| 2026-05-08 08:23 | 41.13888 | 70.79850 | 27121 ft | 496 kts | 85° |
| 2026-05-08 08:23 | 41.14198 | 70.84424 | 27588 ft | 499 kts | 85° |
| 2026-05-08 08:23 | 41.14509 | 70.89029 | 28006 ft | 503 kts | 85° |
| 2026-05-08 08:23 | 41.14822 | 70.93662 | 28443 ft | 506 kts | 85° |
| 2026-05-08 08:24 | 41.15136 | 70.98322 | 28858 ft | 509 kts | 85° |
| 2026-05-08 08:24 | 41.15452 | 71.03014 | 29232 ft | 512 kts | 85° |
| 2026-05-08 08:24 | 41.15767 | 71.07729 | 29594 ft | 515 kts | 85° |
| 2026-05-08 08:24 | 41.16082 | 71.12471 | 30039 ft | 516 kts | 85° |
| 2026-05-08 08:25 | 41.16395 | 71.17204 | 30521 ft | 514 kts | 85° |
| 2026-05-08 08:25 | 41.16705 | 71.21924 | 31016 ft | 512 kts | 85° |
| 2026-05-08 08:25 | 41.17011 | 71.26631 | 31465 ft | 511 kts | 85° |
| 2026-05-08 08:25 | 41.17313 | 71.31312 | 31896 ft | 510 kts | 85° |
| 2026-05-08 08:26 | 41.17614 | 71.36004 | 32327 ft | 509 kts | 85° |
| 2026-05-08 08:26 | 41.17912 | 71.40674 | 32758 ft | 507 kts | 84° |
| 2026-05-08 08:26 | 41.18208 | 71.45330 | 33165 ft | 506 kts | 84° |
| 2026-05-08 08:26 | 41.18502 | 71.49990 | 33583 ft | 505 kts | 84° |
| 2026-05-08 08:27 | 41.18792 | 71.54628 | 34000 ft | 504 kts | 84° |
| 2026-05-08 08:27 | 41.19080 | 71.59252 | 34394 ft | 502 kts | 84° |
| 2026-05-08 08:27 | 41.19366 | 71.63877 | 34718 ft | 502 kts | 84° |
| 2026-05-08 08:27 | 41.19650 | 71.68498 | 34942 ft | 503 kts | 84° |
| 2026-05-08 08:28 | 41.19934 | 71.73148 | 34999 ft | 508 kts | 84° |
| 2026-05-08 08:28 | 41.20405 | 71.80928 | 35028 ft | 507 kts | 84° |
| 2026-05-08 08:29 | 41.20946 | 71.90196 | 35039 ft | 501 kts | 84° |
| 2026-05-08 08:29 | 41.21476 | 71.99410 | 35057 ft | 499 kts | 84° |
| 2026-05-08 08:30 | 41.21999 | 72.08585 | 35059 ft | 498 kts | 84° |
| 2026-05-08 08:30 | 41.22771 | 72.22354 | 35084 ft | 498 kts | 84° |
| 2026-05-08 08:31 | 41.23298 | 72.31538 | 35079 ft | 499 kts | 84° |
| 2026-05-08 08:31 | 41.23827 | 72.40752 | 35087 ft | 500 kts | 84° |
| 2026-05-08 08:32 | 41.24345 | 72.49963 | 35099 ft | 500 kts | 84° |
| 2026-05-08 08:32 | 41.24856 | 72.59181 | 35129 ft | 500 kts | 84° |
| 2026-05-08 08:33 | 41.25346 | 72.68342 | 35131 ft | 501 kts | 84° |
| 2026-05-08 08:33 | 41.25822 | 72.77561 | 35148 ft | 501 kts | 85° |
| 2026-05-08 08:34 | 41.26293 | 72.86806 | 35164 ft | 500 kts | 85° |
| 2026-05-08 08:34 | 41.26758 | 72.96034 | 35161 ft | 501 kts | 84° |
| 2026-05-08 08:35 | 41.27216 | 73.05265 | 35170 ft | 500 kts | 85° |
| 2026-05-08 08:35 | 41.27667 | 73.14500 | 35180 ft | 501 kts | 85° |
| 2026-05-08 08:36 | 41.28111 | 73.23750 | 35178 ft | 501 kts | 85° |
| 2026-05-08 08:36 | 41.28547 | 73.32989 | 35192 ft | 501 kts | 85° |
| 2026-05-08 08:37 | 41.28975 | 73.42223 | 35208 ft | 500 kts | 85° |
| 2026-05-08 08:37 | 41.29396 | 73.51443 | 35220 ft | 499 kts | 85° |
| 2026-05-08 08:38 | 41.29809 | 73.60665 | 35219 ft | 499 kts | 85° |
| 2026-05-08 08:38 | 41.30215 | 73.69873 | 35226 ft | 499 kts | 85° |
| 2026-05-08 08:39 | 41.30611 | 73.79088 | 35213 ft | 499 kts | 85° |
| 2026-05-08 08:39 | 41.31002 | 73.88303 | 35218 ft | 499 kts | 85° |
| 2026-05-08 08:40 | 41.31386 | 73.97513 | 35218 ft | 499 kts | 85° |
| 2026-05-08 08:40 | 41.31861 | 74.06716 | 35223 ft | 499 kts | 83° |
| 2026-05-08 08:41 | 41.32566 | 74.15902 | 35217 ft | 499 kts | 83° |
| 2026-05-08 08:41 | 41.33270 | 74.25094 | 35220 ft | 499 kts | 83° |
| 2026-05-08 08:42 | 41.33930 | 74.34296 | 35223 ft | 500 kts | 83° |
| 2026-05-08 08:42 | 41.34566 | 74.43506 | 35228 ft | 500 kts | 84° |
| 2026-05-08 08:43 | 41.35190 | 74.52658 | 35211 ft | 499 kts | 84° |
| 2026-05-08 08:43 | 41.35813 | 74.61847 | 35216 ft | 498 kts | 84° |
| 2026-05-08 08:44 | 41.36429 | 74.71027 | 35232 ft | 498 kts | 84° |
| 2026-05-08 08:44 | 41.37037 | 74.80218 | 35221 ft | 498 kts | 84° |
| 2026-05-08 08:45 | 41.37638 | 74.89406 | 35225 ft | 498 kts | 84° |
| 2026-05-08 08:45 | 41.38233 | 74.98598 | 35220 ft | 498 kts | 84° |
| 2026-05-08 08:46 | 41.38823 | 75.07791 | 35236 ft | 498 kts | 84° |
| 2026-05-08 08:46 | 41.39404 | 75.16986 | 35228 ft | 498 kts | 84° |
| 2026-05-08 08:47 | 41.39979 | 75.26182 | 35225 ft | 498 kts | 84° |
| 2026-05-08 08:47 | 41.40545 | 75.35362 | 35230 ft | 497 kts | 84° |
| 2026-05-08 08:48 | 41.41103 | 75.44534 | 35226 ft | 497 kts | 84° |
| 2026-05-08 08:48 | 41.41654 | 75.53705 | 35201 ft | 496 kts | 84° |
| 2026-05-08 08:49 | 41.42197 | 75.62868 | 35198 ft | 496 kts | 84° |
| 2026-05-08 08:49 | 41.42733 | 75.72024 | 35188 ft | 495 kts | 84° |
| 2026-05-08 08:50 | 41.43262 | 75.81181 | 35188 ft | 496 kts | 84° |
| 2026-05-08 08:50 | 41.43787 | 75.90351 | 35174 ft | 497 kts | 84° |
| 2026-05-08 08:51 | 41.44306 | 75.99526 | 35177 ft | 497 kts | 84° |
| 2026-05-08 08:51 | 41.44817 | 76.08710 | 35185 ft | 497 kts | 85° |
| 2026-05-08 08:52 | 41.45323 | 76.17906 | 35193 ft | 497 kts | 84° |
| 2026-05-08 08:52 | 41.45816 | 76.27034 | 35185 ft | 497 kts | 84° |
| 2026-05-08 08:53 | 41.46304 | 76.36220 | 35189 ft | 497 kts | 84° |
| 2026-05-08 08:53 | 41.46786 | 76.45409 | 35188 ft | 497 kts | 85° |
| 2026-05-08 08:54 | 41.47259 | 76.54595 | 35198 ft | 496 kts | 84° |
| 2026-05-08 08:54 | 41.47725 | 76.63753 | 35187 ft | 495 kts | 84° |
| 2026-05-08 08:55 | 41.48183 | 76.72896 | 35186 ft | 493 kts | 84° |
| 2026-05-08 08:55 | 41.48633 | 76.82024 | 35201 ft | 493 kts | 85° |
| 2026-05-08 08:56 | 41.49075 | 76.91129 | 35207 ft | 492 kts | 84° |
| 2026-05-08 08:56 | 41.49507 | 77.00211 | 35218 ft | 489 kts | 84° |
| 2026-05-08 08:57 | 41.49931 | 77.09268 | 35201 ft | 488 kts | 85° |
| 2026-05-08 08:57 | 41.50344 | 77.18239 | 35218 ft | 488 kts | 85° |
| 2026-05-08 08:58 | 41.50755 | 77.27282 | 35239 ft | 489 kts | 84° |
| 2026-05-08 08:58 | 41.51159 | 77.36335 | 35226 ft | 489 kts | 84° |
| 2026-05-08 08:59 | 41.51554 | 77.45401 | 35235 ft | 489 kts | 84° |
| 2026-05-08 08:59 | 41.51943 | 77.54461 | 35239 ft | 489 kts | 85° |
| 2026-05-08 09:00 | 41.52324 | 77.63523 | 35247 ft | 489 kts | 84° |
| 2026-05-08 09:00 | 41.52698 | 77.72575 | 35240 ft | 488 kts | 85° |
| 2026-05-08 09:01 | 41.53065 | 77.81619 | 35250 ft | 488 kts | 85° |
| 2026-05-08 09:01 | 41.53425 | 77.90662 | 35242 ft | 487 kts | 85° |
| 2026-05-08 09:02 | 41.53774 | 77.99624 | 35253 ft | 487 kts | 85° |
| 2026-05-08 09:02 | 41.54119 | 78.08645 | 35243 ft | 487 kts | 85° |
| 2026-05-08 09:03 | 41.54457 | 78.17667 | 35242 ft | 486 kts | 85° |
| 2026-05-08 09:03 | 41.54787 | 78.26684 | 35239 ft | 487 kts | 85° |
| 2026-05-08 09:04 | 41.55111 | 78.35716 | 35243 ft | 487 kts | 85° |
| 2026-05-08 09:04 | 41.55428 | 78.44763 | 35235 ft | 488 kts | 85° |
| 2026-05-08 09:05 | 41.55739 | 78.53821 | 35231 ft | 489 kts | 85° |
| 2026-05-08 09:05 | 41.56042 | 78.62902 | 35230 ft | 490 kts | 85° |
| 2026-05-08 09:06 | 41.56340 | 78.71979 | 35217 ft | 490 kts | 85° |
| 2026-05-08 09:06 | 41.56482 | 78.81077 | 35179 ft | 492 kts | 91° |
| 2026-05-08 09:07 | 41.55458 | 78.90119 | 35156 ft | 494 kts | 103° |
| 2026-05-08 09:07 | 41.53656 | 78.98971 | 35123 ft | 495 kts | 103° |
| 2026-05-08 09:08 | 41.51840 | 79.07829 | 35140 ft | 495 kts | 103° |
| 2026-05-08 09:08 | 41.50052 | 79.16686 | 35060 ft | 494 kts | 103° |
| 2026-05-08 09:09 | 41.48278 | 79.25526 | 35055 ft | 493 kts | 103° |
| 2026-05-08 09:09 | 41.46504 | 79.34342 | 35026 ft | 492 kts | 103° |
| 2026-05-08 09:10 | 41.44723 | 79.43145 | 34985 ft | 491 kts | 103° |
| 2026-05-08 09:10 | 41.42948 | 79.51873 | 34978 ft | 491 kts | 103° |
| 2026-05-08 09:11 | 41.41156 | 79.60652 | 34972 ft | 491 kts | 103° |
| 2026-05-08 09:11 | 41.39356 | 79.69427 | 34950 ft | 491 kts | 103° |
| 2026-05-08 09:12 | 41.37548 | 79.78203 | 34937 ft | 492 kts | 103° |
| 2026-05-08 09:12 | 41.35735 | 79.86974 | 34940 ft | 492 kts | 103° |
| 2026-05-08 09:13 | 41.33914 | 79.95742 | 34952 ft | 492 kts | 103° |
| 2026-05-08 09:13 | 41.32087 | 80.04508 | 34927 ft | 491 kts | 103° |
| 2026-05-08 09:14 | 41.30254 | 80.13259 | 34922 ft | 491 kts | 103° |
| 2026-05-08 09:14 | 41.28416 | 80.22002 | 34932 ft | 491 kts | 103° |
| 2026-05-08 09:15 | 41.26574 | 80.30730 | 34910 ft | 490 kts | 103° |
| 2026-05-08 09:15 | 41.24718 | 80.39439 | 34915 ft | 490 kts | 104° |
| 2026-05-08 09:16 | 41.22848 | 80.48133 | 34912 ft | 489 kts | 104° |
| 2026-05-08 09:16 | 41.20974 | 80.56812 | 34913 ft | 489 kts | 104° |
| 2026-05-08 09:17 | 41.19095 | 80.65494 | 34909 ft | 489 kts | 104° |
| 2026-05-08 09:17 | 41.17527 | 80.72709 | 34907 ft | 489 kts | 104° |
| 2026-05-08 09:18 | 41.15639 | 80.81369 | 34908 ft | 489 kts | 104° |
| 2026-05-08 09:18 | 41.13742 | 80.90036 | 34906 ft | 489 kts | 104° |
| 2026-05-08 09:19 | 41.11841 | 80.98686 | 34908 ft | 489 kts | 105° |
| 2026-05-08 09:19 | 41.09933 | 81.07336 | 34908 ft | 489 kts | 105° |
| 2026-05-08 09:20 | 41.08017 | 81.15981 | 34901 ft | 489 kts | 105° |
| 2026-05-08 09:20 | 41.06096 | 81.24620 | 34902 ft | 489 kts | 105° |
| 2026-05-08 09:21 | 41.04169 | 81.33254 | 34900 ft | 489 kts | 105° |
| 2026-05-08 09:23 | 40.97371 | 81.63439 | 34898 ft | 489 kts | 105° |
| 2026-05-08 09:23 | 40.95506 | 81.72088 | 34908 ft | 488 kts | 103° |
| 2026-05-08 09:24 | 40.93903 | 81.80743 | 34905 ft | 488 kts | 102° |
| 2026-05-08 09:24 | 40.92309 | 81.89461 | 34908 ft | 487 kts | 102° |
| 2026-05-08 09:25 | 40.90675 | 81.98149 | 34908 ft | 487 kts | 103° |
| 2026-05-08 09:25 | 40.89012 | 82.06833 | 34907 ft | 487 kts | 103° |
| 2026-05-08 09:26 | 40.87339 | 82.15503 | 34907 ft | 487 kts | 103° |
| 2026-05-08 09:26 | 40.85661 | 82.24170 | 34910 ft | 487 kts | 103° |
| 2026-05-08 09:27 | 40.83977 | 82.32839 | 35078 ft | 488 kts | 103° |
| 2026-05-08 09:27 | 40.83131 | 82.37180 | 35425 ft | 487 kts | 103° |
| 2026-05-08 09:27 | 40.82287 | 82.41499 | 35820 ft | 484 kts | 103° |
| 2026-05-08 09:27 | 40.81447 | 82.45792 | 36205 ft | 482 kts | 103° |
| 2026-05-08 09:28 | 40.80608 | 82.50068 | 36504 ft | 482 kts | 103° |
| 2026-05-08 09:28 | 40.79767 | 82.54348 | 36773 ft | 481 kts | 103° |
| 2026-05-08 09:28 | 40.78926 | 82.58621 | 36960 ft | 482 kts | 103° |
| 2026-05-08 09:29 | 40.77231 | 82.67198 | 36997 ft | 482 kts | 103° |
| 2026-05-08 09:29 | 40.75540 | 82.75714 | 37008 ft | 479 kts | 103° |
| 2026-05-08 09:30 | 40.73855 | 82.84168 | 37013 ft | 476 kts | 103° |
| 2026-05-08 09:30 | 40.72170 | 82.92594 | 37012 ft | 475 kts | 103° |
| 2026-05-08 09:31 | 40.70489 | 83.00960 | 37015 ft | 475 kts | 103° |
| 2026-05-08 09:31 | 40.68792 | 83.09371 | 37010 ft | 475 kts | 103° |
| 2026-05-08 09:32 | 40.67086 | 83.17792 | 37022 ft | 476 kts | 103° |
| 2026-05-08 09:32 | 40.65373 | 83.26214 | 37016 ft | 477 kts | 103° |
| 2026-05-08 09:33 | 40.63649 | 83.34653 | 37010 ft | 477 kts | 103° |
| 2026-05-08 09:33 | 40.61918 | 83.43093 | 37009 ft | 478 kts | 104° |
| 2026-05-08 09:34 | 40.60178 | 83.51544 | 37011 ft | 478 kts | 103° |
| 2026-05-08 09:34 | 40.58432 | 83.59988 | 37016 ft | 479 kts | 103° |
| 2026-05-08 09:35 | 40.56677 | 83.68442 | 37012 ft | 479 kts | 103° |
| 2026-05-08 09:35 | 40.54921 | 83.76874 | 37014 ft | 479 kts | 104° |
| 2026-05-08 09:36 | 40.53155 | 83.85317 | 37012 ft | 478 kts | 104° |
| 2026-05-08 09:36 | 40.51385 | 83.93744 | 37017 ft | 478 kts | 104° |
| 2026-05-08 09:37 | 40.49661 | 84.02172 | 37015 ft | 477 kts | 103° |
| 2026-05-08 09:37 | 40.47964 | 84.10597 | 37019 ft | 477 kts | 103° |
| 2026-05-08 09:38 | 40.46260 | 84.19004 | 37016 ft | 476 kts | 103° |
| 2026-05-08 09:38 | 40.44545 | 84.27402 | 37014 ft | 476 kts | 103° |
| 2026-05-08 09:39 | 40.42821 | 84.35798 | 37015 ft | 476 kts | 103° |
| 2026-05-08 09:39 | 40.41093 | 84.44173 | 37014 ft | 476 kts | 103° |
| 2026-05-08 09:40 | 40.39359 | 84.52550 | 37015 ft | 476 kts | 104° |
| 2026-05-08 09:40 | 40.37620 | 84.60921 | 37014 ft | 476 kts | 104° |
| 2026-05-08 09:41 | 40.35887 | 84.69228 | 37022 ft | 476 kts | 104° |
| 2026-05-08 09:41 | 40.34134 | 84.77592 | 37018 ft | 476 kts | 104° |
| 2026-05-08 09:42 | 40.32376 | 84.85951 | 37012 ft | 476 kts | 104° |
| 2026-05-08 09:42 | 40.30611 | 84.94312 | 37015 ft | 476 kts | 104° |
| 2026-05-08 09:43 | 40.28841 | 85.02664 | 37014 ft | 476 kts | 104° |
| 2026-05-08 09:43 | 40.27063 | 85.11017 | 37017 ft | 476 kts | 104° |
| 2026-05-08 09:44 | 40.25280 | 85.19365 | 37012 ft | 476 kts | 104° |
| 2026-05-08 09:44 | 40.23490 | 85.27710 | 37011 ft | 476 kts | 104° |
| 2026-05-08 09:45 | 40.21696 | 85.36044 | 37018 ft | 476 kts | 104° |
| 2026-05-08 09:45 | 40.19893 | 85.44388 | 37023 ft | 476 kts | 104° |
| 2026-05-08 09:46 | 40.18085 | 85.52720 | 37020 ft | 476 kts | 104° |
| 2026-05-08 09:46 | 40.16272 | 85.61046 | 37024 ft | 476 kts | 104° |
| 2026-05-08 09:47 | 40.14453 | 85.69366 | 37014 ft | 476 kts | 104° |
| 2026-05-08 09:47 | 40.12630 | 85.77676 | 37018 ft | 476 kts | 104° |
| 2026-05-08 09:48 | 40.10802 | 85.85981 | 37021 ft | 475 kts | 104° |
| 2026-05-08 09:48 | 40.08969 | 85.94277 | 37015 ft | 475 kts | 104° |
| 2026-05-08 09:49 | 40.07060 | 86.02533 | 37017 ft | 475 kts | 107° |
| 2026-05-08 09:49 | 40.04860 | 86.10673 | 37022 ft | 476 kts | 108° |
| 2026-05-08 09:50 | 40.02613 | 86.18788 | 37025 ft | 476 kts | 108° |
| 2026-05-08 09:50 | 40.00388 | 86.26862 | 37023 ft | 476 kts | 108° |
| 2026-05-08 09:51 | 39.98143 | 86.35043 | 37021 ft | 476 kts | 108° |
| 2026-05-08 09:51 | 39.95914 | 86.43163 | 37022 ft | 476 kts | 108° |
| 2026-05-08 09:52 | 39.93677 | 86.51283 | 37023 ft | 476 kts | 108° |
| 2026-05-08 09:52 | 39.91434 | 86.59395 | 37013 ft | 476 kts | 108° |
| 2026-05-08 09:53 | 39.89201 | 86.67446 | 37011 ft | 476 kts | 108° |
| 2026-05-08 09:53 | 39.86944 | 86.75554 | 37016 ft | 476 kts | 108° |
| 2026-05-08 09:54 | 39.84683 | 86.83652 | 37015 ft | 476 kts | 109° |
| 2026-05-08 09:54 | 39.82415 | 86.91752 | 37022 ft | 476 kts | 109° |
| 2026-05-08 09:55 | 39.80142 | 86.99846 | 37019 ft | 476 kts | 109° |
| 2026-05-08 09:55 | 39.77862 | 87.07934 | 37021 ft | 477 kts | 109° |
| 2026-05-08 09:56 | 39.75574 | 87.16028 | 37020 ft | 477 kts | 109° |
| 2026-05-08 09:56 | 39.73284 | 87.24105 | 37019 ft | 476 kts | 109° |
| 2026-05-08 09:57 | 39.69839 | 87.36206 | 37023 ft | 476 kts | 109° |
| 2026-05-08 09:57 | 39.67534 | 87.44271 | 37015 ft | 476 kts | 109° |
| 2026-05-08 09:58 | 39.65224 | 87.52330 | 37022 ft | 476 kts | 109° |
| 2026-05-08 09:58 | 39.62908 | 87.60387 | 37018 ft | 476 kts | 109° |
| 2026-05-08 09:59 | 39.60589 | 87.68427 | 37020 ft | 476 kts | 109° |
| 2026-05-08 09:59 | 39.58262 | 87.76471 | 37018 ft | 476 kts | 109° |
| 2026-05-08 10:00 | 39.55928 | 87.84514 | 37021 ft | 476 kts | 109° |
| 2026-05-08 10:00 | 39.53591 | 87.92541 | 37017 ft | 477 kts | 109° |
| 2026-05-08 10:01 | 39.51246 | 88.00572 | 37018 ft | 477 kts | 110° |
| 2026-05-08 10:01 | 39.48898 | 88.08593 | 37014 ft | 477 kts | 110° |
| 2026-05-08 10:02 | 39.46558 | 88.16560 | 37014 ft | 477 kts | 110° |
| 2026-05-08 10:02 | 39.44197 | 88.24572 | 37014 ft | 476 kts | 110° |
| 2026-05-08 10:03 | 39.41831 | 88.32579 | 37014 ft | 476 kts | 110° |
| 2026-05-08 10:03 | 39.39461 | 88.40575 | 37014 ft | 476 kts | 110° |
| 2026-05-08 10:04 | 39.37086 | 88.48565 | 37025 ft | 476 kts | 110° |
| 2026-05-08 10:04 | 39.34702 | 88.56560 | 37019 ft | 477 kts | 110° |
| 2026-05-08 10:05 | 39.32312 | 88.64556 | 37028 ft | 477 kts | 110° |
| 2026-05-08 10:05 | 39.29913 | 88.72553 | 37045 ft | 478 kts | 110° |
| 2026-05-08 10:06 | 39.27915 | 88.79197 | 37052 ft | 478 kts | 110° |
| 2026-05-08 10:06 | 39.25500 | 88.87207 | 37056 ft | 479 kts | 110° |
| 2026-05-08 10:07 | 39.23079 | 88.95206 | 37062 ft | 480 kts | 110° |
| 2026-05-08 10:07 | 39.20648 | 89.03225 | 37095 ft | 480 kts | 110° |
| 2026-05-08 10:08 | 39.18207 | 89.11243 | 37102 ft | 480 kts | 110° |
| 2026-05-08 10:08 | 39.15761 | 89.19259 | 37098 ft | 481 kts | 110° |
| 2026-05-08 10:09 | 39.13312 | 89.27262 | 37116 ft | 481 kts | 110° |
| 2026-05-08 10:09 | 39.10855 | 89.35273 | 37151 ft | 481 kts | 110° |
| 2026-05-08 10:10 | 39.08386 | 89.43293 | 37177 ft | 482 kts | 110° |
| 2026-05-08 10:10 | 39.05908 | 89.51317 | 37176 ft | 484 kts | 111° |
| 2026-05-08 10:11 | 39.03424 | 89.59377 | 42097 ft | 486 kts | 110° |
| 2026-05-08 10:11 | 39.02178 | 89.63456 | 41738 ft | 488 kts | 111° |
| 2026-05-08 10:11 | 39.00925 | 89.67480 | 41490 ft | 482 kts | 111° |
| 2026-05-08 10:12 | 38.99658 | 89.71533 | 40407 ft | 503 kts | 111° |
| 2026-05-08 10:12 | 38.98337 | 89.75855 | 39025 ft | 529 kts | 111° |
| 2026-05-08 10:12 | 38.97018 | 89.80219 | 38113 ft | 519 kts | 110° |
| 2026-05-08 10:12 | 38.95708 | 89.84508 | 37517 ft | 510 kts | 111° |
| 2026-05-08 10:13 | 38.94384 | 89.88656 | 37335 ft | 497 kts | 111° |
| 2026-05-08 10:13 | 38.93075 | 89.92695 | 37276 ft | 482 kts | 111° |
| 2026-05-08 10:13 | 38.90576 | 90.00474 | 37283 ft | 474 kts | 111° |
| 2026-05-08 10:14 | 38.88072 | 90.08399 | 37276 ft | 484 kts | 111° |
| 2026-05-08 10:14 | 38.85527 | 90.16463 | 37280 ft | 490 kts | 111° |
| 2026-05-08 10:15 | 38.82961 | 90.24566 | 37288 ft | 489 kts | 111° |
| 2026-05-08 10:15 | 38.80405 | 90.32614 | 37296 ft | 485 kts | 111° |
| 2026-05-08 10:16 | 38.77847 | 90.40607 | 37298 ft | 484 kts | 111° |